sensor_id;sensor_type;location;lat;lon;timestamp;pressure;altitude;pressure_sealevel;temperature;humidity
56074;BME280;41950;55.840;37.442;2022-12-26T00:01:54;100836.13;;;-3.03;66.81
56074;BME280;41950;55.840;37.442;2022-12-26T00:04:21;100777.63;;;-3.35;66.60
56074;BME280;41950;55.840;37.442;2022-12-26T00:06:47;100827.72;;;-3.02;66.93
56074;BME280;41950;55.840;37.442;2022-12-26T00:09:13;100836.66;;;-2.94;66.86
56074;BME280;41950;55.840;37.442;2022-12-26T00:11:39;100827.47;;;-2.92;66.93
56074;BME280;41950;55.840;37.442;2022-12-26T00:14:10;100831.66;;;-2.92;66.81
56074;BME280;41950;55.840;37.442;2022-12-26T00:16:36;100811.38;;;-3.07;67.06
56074;BME280;41950;55.840;37.442;2022-12-26T00:19:02;100858.72;;;-2.93;67.09
56074;BME280;41950;55.840;37.442;2022-12-26T00:21:29;100863.66;;;-2.96;67.14
56074;BME280;41950;55.840;37.442;2022-12-26T00:23:56;100857.69;;;-2.96;66.79
56074;BME280;41950;55.840;37.442;2022-12-26T00:26:24;100844.22;;;-3.10;66.39
56074;BME280;41950;55.840;37.442;2022-12-26T00:28:52;100845.25;;;-3.06;66.27
56074;BME280;41950;55.840;37.442;2022-12-26T00:31:21;100859.28;;;-2.98;66.30
56074;BME280;41950;55.840;37.442;2022-12-26T00:34:08;100868.56;;;-2.99;66.51
56074;BME280;41950;55.840;37.442;2022-12-26T00:36:34;100856.75;;;-3.13;66.12
56074;BME280;41950;55.840;37.442;2022-12-26T00:39:01;100863.28;;;-3.02;66.00
56074;BME280;41950;55.840;37.442;2022-12-26T00:41:27;100871.69;;;-3.03;65.87
56074;BME280;41950;55.840;37.442;2022-12-26T00:43:53;100859.78;;;-3.04;65.92
56074;BME280;41950;55.840;37.442;2022-12-26T00:46:49;100878.78;;;-2.97;65.82
56074;BME280;41950;55.840;37.442;2022-12-26T00:49:24;100873.34;;;-3.03;66.11
56074;BME280;41950;55.840;37.442;2022-12-26T00:55:30;100835.75;;;-3.25;66.45
56074;BME280;41950;55.840;37.442;2022-12-26T00:58:11;100851.56;;;-3.15;65.97
56074;BME280;41950;55.840;37.442;2022-12-26T01:00:37;100855.69;;;-3.17;65.95
56074;BME280;41950;55.840;37.442;2022-12-26T01:06:24;100874.69;;;-3.10;65.56
56074;BME280;41950;55.840;37.442;2022-12-26T01:08:51;100878.00;;;-3.11;64.84
56074;BME280;41950;55.840;37.442;2022-12-26T01:11:17;100872.50;;;-3.19;65.30
56074;BME280;41950;55.840;37.442;2022-12-26T01:14:14;100848.44;;;-3.25;65.75
56074;BME280;41950;55.840;37.442;2022-12-26T01:16:41;100875.22;;;-3.16;65.24
56074;BME280;41950;55.840;37.442;2022-12-26T01:19:08;100872.59;;;-3.17;65.38
56074;BME280;41950;55.840;37.442;2022-12-26T01:21:33;100881.72;;;-3.21;65.22
56074;BME280;41950;55.840;37.442;2022-12-26T01:23:59;100879.78;;;-3.25;64.96
56074;BME280;41950;55.840;37.442;2022-12-26T01:26:34;100879.00;;;-3.24;65.08
56074;BME280;41950;55.840;37.442;2022-12-26T01:28:59;100870.50;;;-3.24;65.34
56074;BME280;41950;55.840;37.442;2022-12-26T01:31:25;100833.47;;;-3.35;65.23
56074;BME280;41950;55.840;37.442;2022-12-26T01:33:50;100854.41;;;-3.25;65.25
56074;BME280;41950;55.840;37.442;2022-12-26T01:36:16;100856.66;;;-3.29;65.34
56074;BME280;41950;55.840;37.442;2022-12-26T01:38:43;100885.03;;;-3.22;65.10
56074;BME280;41950;55.840;37.442;2022-12-26T01:41:09;100875.75;;;-3.21;65.37
56074;BME280;41950;55.840;37.442;2022-12-26T01:46:54;100881.38;;;-3.27;65.54
56074;BME280;41950;55.840;37.442;2022-12-26T01:49:39;100862.34;;;-3.33;65.61
56074;BME280;41950;55.840;37.442;2022-12-26T01:53:02;100841.63;;;-3.41;65.46
56074;BME280;41950;55.840;37.442;2022-12-26T01:59:20;100870.84;;;-3.18;65.65
56074;BME280;41950;55.840;37.442;2022-12-26T02:05:33;100861.72;;;-3.29;65.66
56074;BME280;41950;55.840;37.442;2022-12-26T02:08:06;100874.50;;;-3.13;65.53
56074;BME280;41950;55.840;37.442;2022-12-26T02:10:45;100864.09;;;-3.18;65.32
56074;BME280;41950;55.840;37.442;2022-12-26T02:13:13;100857.91;;;-3.23;65.36
56074;BME280;41950;55.840;37.442;2022-12-26T02:15:39;100848.44;;;-3.25;65.37
56074;BME280;41950;55.840;37.442;2022-12-26T02:18:06;100838.53;;;-3.21;65.33
56074;BME280;41950;55.840;37.442;2022-12-26T02:20:43;100844.38;;;-3.07;65.41
56074;BME280;41950;55.840;37.442;2022-12-26T02:45:49;100868.09;;;-2.92;65.47
56074;BME280;41950;55.840;37.442;2022-12-26T02:48:57;100878.50;;;-2.87;65.58
56074;BME280;41950;55.840;37.442;2022-12-26T02:57:26;100882.53;;;-2.91;66.04
56074;BME280;41950;55.840;37.442;2022-12-26T03:00:16;100886.13;;;-2.87;66.09
56074;BME280;41950;55.840;37.442;2022-12-26T03:03:15;100879.38;;;-2.87;65.60
56074;BME280;41950;55.840;37.442;2022-12-26T03:06:13;100872.56;;;-2.88;65.82
56074;BME280;41950;55.840;37.442;2022-12-26T03:20:39;100886.84;;;-3.04;66.64
56074;BME280;41950;55.840;37.442;2022-12-26T03:23:15;100889.28;;;-3.06;66.51
56074;BME280;41950;55.840;37.442;2022-12-26T03:25:57;100886.50;;;-3.11;66.67
56074;BME280;41950;55.840;37.442;2022-12-26T03:28:42;100884.66;;;-3.13;66.86
56074;BME280;41950;55.840;37.442;2022-12-26T03:31:10;100845.38;;;-3.34;66.88
56074;BME280;41950;55.840;37.442;2022-12-26T03:33:42;100880.13;;;-3.19;66.81
56074;BME280;41950;55.840;37.442;2022-12-26T03:39:11;100880.13;;;-3.19;66.31
56074;BME280;41950;55.840;37.442;2022-12-26T03:42:03;100882.75;;;-3.17;65.91
56074;BME280;41950;55.840;37.442;2022-12-26T03:44:56;100867.00;;;-3.26;65.89
56074;BME280;41950;55.840;37.442;2022-12-26T03:47:54;100853.22;;;-3.30;65.90
56074;BME280;41950;55.840;37.442;2022-12-26T03:51:04;100886.59;;;-3.09;66.07
56074;BME280;41950;55.840;37.442;2022-12-26T03:53:56;100889.22;;;-3.07;66.23
56074;BME280;41950;55.840;37.442;2022-12-26T03:56:46;100879.41;;;-3.16;66.54
56074;BME280;41950;55.840;37.442;2022-12-26T03:59:46;100860.75;;;-3.31;66.71
56074;BME280;41950;55.840;37.442;2022-12-26T04:02:33;100885.47;;;-3.14;66.62
56074;BME280;41950;55.840;37.442;2022-12-26T04:08:55;100838.13;;;-3.43;66.04
56074;BME280;41950;55.840;37.442;2022-12-26T04:11:43;100859.81;;;-3.33;66.31
56074;BME280;41950;55.840;37.442;2022-12-26T04:14:42;100898.78;;;-3.18;66.23
56074;BME280;41950;55.840;37.442;2022-12-26T04:17:56;100885.13;;;-3.20;66.19
56074;BME280;41950;55.840;37.442;2022-12-26T04:20:49;100892.19;;;-3.15;66.34
56074;BME280;41950;55.840;37.442;2022-12-26T04:23:33;100888.34;;;-3.23;66.58
56074;BME280;41950;55.840;37.442;2022-12-26T04:26:31;100863.22;;;-3.33;66.88
56074;BME280;41950;55.840;37.442;2022-12-26T04:29:17;100891.16;;;-3.18;67.09
56074;BME280;41950;55.840;37.442;2022-12-26T04:32:16;100892.91;;;-3.17;66.71
56074;BME280;41950;55.840;37.442;2022-12-26T04:35:24;100852.63;;;-3.40;66.87
56074;BME280;41950;55.840;37.442;2022-12-26T04:38:40;100896.66;;;-3.11;67.10
56074;BME280;41950;55.840;37.442;2022-12-26T04:41:45;100902.44;;;-3.13;67.09
56074;BME280;41950;55.840;37.442;2022-12-26T04:44:33;100903.22;;;-3.14;66.88
56074;BME280;41950;55.840;37.442;2022-12-26T04:46:59;100911.34;;;-3.05;67.29
56074;BME280;41950;55.840;37.442;2022-12-26T04:49:25;100912.16;;;-3.06;66.98
56074;BME280;41950;55.840;37.442;2022-12-26T05:02:15;100923.56;;;-2.99;67.03
56074;BME280;41950;55.840;37.442;2022-12-26T05:09:01;100927.56;;;-3.03;66.95
56074;BME280;41950;55.840;37.442;2022-12-26T05:12:06;100934.50;;;-3.00;67.00
56074;BME280;41950;55.840;37.442;2022-12-26T05:14:33;100932.56;;;-3.04;66.66
56074;BME280;41950;55.840;37.442;2022-12-26T05:17:06;100923.88;;;-3.08;66.69
56074;BME280;41950;55.840;37.442;2022-12-26T05:19:50;100933.50;;;-3.02;66.80
56074;BME280;41950;55.840;37.442;2022-12-26T05:22:38;100937.19;;;-3.12;66.90
56074;BME280;41950;55.840;37.442;2022-12-26T05:25:28;100925.41;;;-3.26;67.18
56074;BME280;41950;55.840;37.442;2022-12-26T05:28:14;100888.78;;;-3.45;67.16
56074;BME280;41950;55.840;37.442;2022-12-26T05:30:59;100933.97;;;-3.24;67.57
56074;BME280;41950;55.840;37.442;2022-12-26T05:33:27;100937.22;;;-3.27;67.59
56074;BME280;41950;55.840;37.442;2022-12-26T05:36:12;100938.75;;;-3.29;67.72
56074;BME280;41950;55.840;37.442;2022-12-26T05:38:38;100938.09;;;-3.26;67.69
56074;BME280;41950;55.840;37.442;2022-12-26T05:41:04;100935.63;;;-3.25;67.60
56074;BME280;41950;55.840;37.442;2022-12-26T05:43:29;100908.66;;;-3.37;67.28
56074;BME280;41950;55.840;37.442;2022-12-26T05:45:57;100917.84;;;-3.39;67.33
56074;BME280;41950;55.840;37.442;2022-12-26T05:48:22;100894.31;;;-3.52;67.54
56074;BME280;41950;55.840;37.442;2022-12-26T05:50:48;100938.88;;;-3.27;67.50
56074;BME280;41950;55.840;37.442;2022-12-26T05:53:13;100936.13;;;-3.30;67.28
56074;BME280;41950;55.840;37.442;2022-12-26T05:55:40;100907.78;;;-3.53;67.40
56074;BME280;41950;55.840;37.442;2022-12-26T05:58:06;100940.59;;;-3.41;67.58
56074;BME280;41950;55.840;37.442;2022-12-26T06:00:33;100931.06;;;-3.45;67.75
56074;BME280;41950;55.840;37.442;2022-12-26T06:03:01;100939.53;;;-3.45;68.02
56074;BME280;41950;55.840;37.442;2022-12-26T06:05:27;100897.31;;;-3.72;67.73
56074;BME280;41950;55.840;37.442;2022-12-26T06:07:53;100933.94;;;-3.54;68.26
56074;BME280;41950;55.840;37.442;2022-12-26T06:10:19;100929.44;;;-3.58;68.62
56074;BME280;41950;55.840;37.442;2022-12-26T06:12:45;100920.44;;;-3.67;68.49
56074;BME280;41950;55.840;37.442;2022-12-26T06:15:10;100928.31;;;-3.63;68.60
56074;BME280;41950;55.840;37.442;2022-12-26T06:17:37;100941.63;;;-3.52;68.75
56074;BME280;41950;55.840;37.442;2022-12-26T06:20:03;100950.84;;;-3.39;68.16
56074;BME280;41950;55.840;37.442;2022-12-26T06:22:30;100921.25;;;-3.54;68.40
56074;BME280;41950;55.840;37.442;2022-12-26T06:24:56;100953.56;;;-3.36;68.27
56074;BME280;41950;55.840;37.442;2022-12-26T06:27:22;100936.84;;;-3.48;68.35
56074;BME280;41950;55.840;37.442;2022-12-26T06:29:48;100963.19;;;-3.31;68.46
56074;BME280;41950;55.840;37.442;2022-12-26T06:32:13;100967.59;;;-3.28;68.25
56074;BME280;41950;55.840;37.442;2022-12-26T06:34:39;100953.81;;;-3.47;68.49
56074;BME280;41950;55.840;37.442;2022-12-26T06:37:04;100958.78;;;-3.48;68.59
56074;BME280;41950;55.840;37.442;2022-12-26T06:39:30;100964.56;;;-3.51;69.02
56074;BME280;41950;55.840;37.442;2022-12-26T06:41:56;100969.81;;;-3.48;68.83
56074;BME280;41950;55.840;37.442;2022-12-26T06:44:21;100960.75;;;-3.57;68.87
56074;BME280;41950;55.840;37.442;2022-12-26T06:46:47;100971.78;;;-3.57;68.86
56074;BME280;41950;55.840;37.442;2022-12-26T06:49:13;100934.16;;;-3.79;68.72
56074;BME280;41950;55.840;37.442;2022-12-26T06:51:38;100994.41;;;-3.47;68.73
56074;BME280;41950;55.840;37.442;2022-12-26T06:54:05;100997.56;;;-3.51;68.76
56074;BME280;41950;55.840;37.442;2022-12-26T06:56:32;100992.47;;;-3.51;69.05
56074;BME280;41950;55.840;37.442;2022-12-26T06:59:02;101012.69;;;-3.52;68.47
56074;BME280;41950;55.840;37.442;2022-12-26T07:01:31;101003.25;;;-3.55;68.48
56074;BME280;41950;55.840;37.442;2022-12-26T07:03:59;101008.41;;;-3.53;68.35
56074;BME280;41950;55.840;37.442;2022-12-26T07:06:33;100992.97;;;-3.56;68.38
56074;BME280;41950;55.840;37.442;2022-12-26T07:11:29;100999.31;;;-3.50;68.22
56074;BME280;41950;55.840;37.442;2022-12-26T07:13:56;100980.19;;;-3.58;68.38
56074;BME280;41950;55.840;37.442;2022-12-26T07:16:23;100994.41;;;-3.47;68.49
56074;BME280;41950;55.840;37.442;2022-12-26T07:18:55;101005.09;;;-3.37;68.33
56074;BME280;41950;55.840;37.442;2022-12-26T07:21:21;100978.13;;;-3.50;68.42
56074;BME280;41950;55.840;37.442;2022-12-26T07:23:47;100993.63;;;-3.46;68.22
56074;BME280;41950;55.840;37.442;2022-12-26T07:26:13;100959.34;;;-3.67;68.41
56074;BME280;41950;55.840;37.442;2022-12-26T07:28:39;100997.66;;;-3.49;67.93
56074;BME280;41950;55.840;37.442;2022-12-26T07:31:05;101002.47;;;-3.54;68.20
56074;BME280;41950;55.840;37.442;2022-12-26T07:33:31;101005.09;;;-3.52;68.26
56074;BME280;41950;55.840;37.442;2022-12-26T07:36:02;100996.16;;;-3.46;68.30
56074;BME280;41950;55.840;37.442;2022-12-26T07:38:28;101003.16;;;-3.42;68.43
56074;BME280;41950;55.840;37.442;2022-12-26T07:40:56;101005.09;;;-3.37;68.49
56074;BME280;41950;55.840;37.442;2022-12-26T07:43:23;101005.09;;;-3.37;68.12
56074;BME280;41950;55.840;37.442;2022-12-26T07:45:49;100998.09;;;-3.42;67.87
56074;BME280;41950;55.840;37.442;2022-12-26T07:48:16;101000.38;;;-3.46;68.10
56074;BME280;41950;55.840;37.442;2022-12-26T07:50:42;101009.91;;;-3.42;68.01
56074;BME280;41950;55.840;37.442;2022-12-26T07:53:14;101010.69;;;-3.43;68.05
56074;BME280;41950;55.840;37.442;2022-12-26T07:55:41;101011.75;;;-3.39;68.37
56074;BME280;41950;55.840;37.442;2022-12-26T07:58:07;101012.03;;;-3.35;68.21
56074;BME280;41950;55.840;37.442;2022-12-26T08:00:32;100998.44;;;-3.35;68.32
56074;BME280;41950;55.840;37.442;2022-12-26T08:02:58;101008.22;;;-3.28;68.27
56074;BME280;41950;55.840;37.442;2022-12-26T08:05:24;101001.06;;;-3.34;68.02
56074;BME280;41950;55.840;37.442;2022-12-26T08:07:49;101018.16;;;-3.31;68.32
56074;BME280;41950;55.840;37.442;2022-12-26T08:10:16;101013.69;;;-3.35;68.14
56074;BME280;41950;55.840;37.442;2022-12-26T08:12:42;101011.22;;;-3.34;68.34
56074;BME280;41950;55.840;37.442;2022-12-26T08:15:11;101021.28;;;-3.35;68.46
56074;BME280;41950;55.840;37.442;2022-12-26T08:17:37;101002.72;;;-3.49;68.57
56074;BME280;41950;55.840;37.442;2022-12-26T08:20:03;101003.69;;;-3.47;68.32
56074;BME280;41950;55.840;37.442;2022-12-26T08:22:29;101021.38;;;-3.34;68.32
56074;BME280;41950;55.840;37.442;2022-12-26T08:24:55;101029.06;;;-3.19;68.34
56074;BME280;41950;55.840;37.442;2022-12-26T08:27:21;101025.63;;;-3.05;68.14
56074;BME280;41950;55.840;37.442;2022-12-26T08:29:48;101024.94;;;-3.02;67.95
56074;BME280;41950;55.840;37.442;2022-12-26T08:32:14;101026.69;;;-3.01;67.48
56074;BME280;41950;55.840;37.442;2022-12-26T08:34:39;101011.97;;;-3.07;67.59
56074;BME280;41950;55.840;37.442;2022-12-26T08:37:05;101021.19;;;-2.94;67.28
56074;BME280;41950;55.840;37.442;2022-12-26T08:39:30;101022.97;;;-2.93;67.33
56074;BME280;41950;55.840;37.442;2022-12-26T08:41:56;101011.75;;;-2.97;67.16
56074;BME280;41950;55.840;37.442;2022-12-26T08:44:22;100979.75;;;-3.08;67.08
56074;BME280;41950;55.840;37.442;2022-12-26T08:46:47;101021.28;;;-2.93;66.84
56074;BME280;41950;55.840;37.442;2022-12-26T08:49:13;101005.16;;;-3.08;66.69
56074;BME280;41950;55.840;37.442;2022-12-26T08:51:39;101021.59;;;-3.01;66.74
56074;BME280;41950;55.840;37.442;2022-12-26T08:54:05;101004.97;;;-3.11;66.90
56074;BME280;41950;55.840;37.442;2022-12-26T08:56:31;101012.38;;;-3.01;66.91
56074;BME280;41950;55.840;37.442;2022-12-26T08:58:57;101008.16;;;-3.00;67.00
56074;BME280;41950;55.840;37.442;2022-12-26T09:01:28;101003.94;;;-3.00;66.63
56074;BME280;41950;55.840;37.442;2022-12-26T09:03:56;101008.81;;;-3.03;66.80
56074;BME280;41950;55.840;37.442;2022-12-26T09:06:22;100986.75;;;-3.19;66.82
56074;BME280;41950;55.840;37.442;2022-12-26T09:08:48;101003.41;;;-3.09;66.76
56074;BME280;41950;55.840;37.442;2022-12-26T09:11:17;101004.63;;;-3.02;66.50
56074;BME280;41950;55.840;37.442;2022-12-26T09:13:44;101011.22;;;-2.91;66.58
56074;BME280;41950;55.840;37.442;2022-12-26T09:16:16;101001.50;;;-2.98;66.35
56074;BME280;41950;55.840;37.442;2022-12-26T09:18:44;101002.88;;;-3.03;66.27
56074;BME280;41950;55.840;37.442;2022-12-26T09:21:11;101011.13;;;-2.93;66.60
56074;BME280;41950;55.840;37.442;2022-12-26T09:23:38;101010.44;;;-2.90;66.45
56074;BME280;41950;55.840;37.442;2022-12-26T09:26:09;101010.97;;;-2.96;66.50
56074;BME280;41950;55.840;37.442;2022-12-26T09:28:36;100979.75;;;-3.08;66.59
56074;BME280;41950;55.840;37.442;2022-12-26T09:31:04;101002.28;;;-2.85;66.50
56074;BME280;41950;55.840;37.442;2022-12-26T09:33:31;101001.66;;;-2.81;66.30
56074;BME280;41950;55.840;37.442;2022-12-26T09:35:58;101002.63;;;-2.78;65.97
56074;BME280;41950;55.840;37.442;2022-12-26T09:38:24;100997.22;;;-2.70;65.73
56074;BME280;41950;55.840;37.442;2022-12-26T09:46:17;100998.94;;;-2.54;65.47
56074;BME280;41950;55.840;37.442;2022-12-26T09:51:18;100973.47;;;-2.70;65.29
56074;BME280;41950;55.840;37.442;2022-12-26T09:53:45;100988.88;;;-2.67;65.32
56074;BME280;41950;55.840;37.442;2022-12-26T09:56:14;100972.03;;;-2.80;65.53
56074;BME280;41950;55.840;37.442;2022-12-26T09:58:49;100985.78;;;-2.76;65.21
56074;BME280;41950;55.840;37.442;2022-12-26T10:01:26;100973.09;;;-2.76;65.70
56074;BME280;41950;55.840;37.442;2022-12-26T10:03:56;100976.78;;;-2.71;65.52
56074;BME280;41950;55.840;37.442;2022-12-26T10:06:23;100987.72;;;-2.58;65.40
56074;BME280;41950;55.840;37.442;2022-12-26T10:12:12;100982.00;;;-2.39;64.88
56074;BME280;41950;55.840;37.442;2022-12-26T10:17:48;100983.84;;;-2.36;64.94
56074;BME280;41950;55.840;37.442;2022-12-26T10:23:20;100976.44;;;-2.32;64.59
56074;BME280;41950;55.840;37.442;2022-12-26T10:26:04;100986.13;;;-2.41;64.59
56074;BME280;41950;55.840;37.442;2022-12-26T10:28:43;100975.34;;;-2.52;64.87
56074;BME280;41950;55.840;37.442;2022-12-26T10:34:25;100970.94;;;-2.39;65.07
56074;BME280;41950;55.840;37.442;2022-12-26T10:37:00;100970.09;;;-2.40;65.27
56074;BME280;41950;55.840;37.442;2022-12-26T10:39:33;100975.16;;;-2.40;64.96
56074;BME280;41950;55.840;37.442;2022-12-26T10:42:18;100963.59;;;-2.50;65.09
56074;BME280;41950;55.840;37.442;2022-12-26T10:44:47;100966.06;;;-2.51;65.17
56074;BME280;41950;55.840;37.442;2022-12-26T10:47:22;100971.06;;;-2.53;65.22
56074;BME280;41950;55.840;37.442;2022-12-26T10:49:49;100978.84;;;-2.50;65.39
56074;BME280;41950;55.840;37.442;2022-12-26T10:52:17;100936.72;;;-2.61;65.30
56074;BME280;41950;55.840;37.442;2022-12-26T10:54:46;100969.63;;;-2.47;65.18
56074;BME280;41950;55.840;37.442;2022-12-26T10:57:16;100966.75;;;-2.54;65.51
56074;BME280;41950;55.840;37.442;2022-12-26T10:59:47;100967.00;;;-2.49;65.39
56074;BME280;41950;55.840;37.442;2022-12-26T11:02:22;100952.22;;;-2.56;65.31
56074;BME280;41950;55.840;37.442;2022-12-26T11:05:07;100960.63;;;-2.57;65.18
56074;BME280;41950;55.840;37.442;2022-12-26T11:07:47;100955.63;;;-2.56;65.42
56074;BME280;41950;55.840;37.442;2022-12-26T11:10:19;100922.47;;;-2.73;65.19
56074;BME280;41950;55.840;37.442;2022-12-26T11:12:49;100964.13;;;-2.55;65.32
56074;BME280;41950;55.840;37.442;2022-12-26T11:15:30;100963.97;;;-2.58;65.10
56074;BME280;41950;55.840;37.442;2022-12-26T11:18:39;100961.25;;;-2.61;64.87
56074;BME280;41950;55.840;37.442;2022-12-26T11:23:38;100958.81;;;-2.74;65.51
56074;BME280;41950;55.840;37.442;2022-12-26T11:26:18;100924.91;;;-2.75;65.08
56074;BME280;41950;55.840;37.442;2022-12-26T11:28:45;100950.13;;;-2.63;64.87
56074;BME280;41950;55.840;37.442;2022-12-26T11:31:23;100952.75;;;-2.62;65.30
56074;BME280;41950;55.840;37.442;2022-12-26T11:33:51;100946.09;;;-2.60;65.36
56074;BME280;41950;55.840;37.442;2022-12-26T11:36:25;100947.13;;;-2.56;65.33
56074;BME280;41950;55.840;37.442;2022-12-26T11:38:55;100922.19;;;-2.78;65.38
56074;BME280;41950;55.840;37.442;2022-12-26T11:49:18;100948.38;;;-2.79;65.77
56074;BME280;41950;55.840;37.442;2022-12-26T11:51:49;100924.59;;;-2.96;65.88
56074;BME280;41950;55.840;37.442;2022-12-26T11:57:21;100956.81;;;-2.80;65.92
56074;BME280;41950;55.840;37.442;2022-12-26T11:59:50;100943.69;;;-2.88;65.80
56074;BME280;41950;55.840;37.442;2022-12-26T12:02:21;100957.16;;;-2.89;65.99
56074;BME280;41950;55.840;37.442;2022-12-26T12:04:50;100955.94;;;-2.95;66.04
56074;BME280;41950;55.840;37.442;2022-12-26T12:15:56;100952.00;;;-3.05;66.01
56074;BME280;41950;55.840;37.442;2022-12-26T12:23:46;100956.47;;;-3.16;66.43
56074;BME280;41950;55.840;37.442;2022-12-26T12:26:27;100954.81;;;-3.15;66.39
56074;BME280;41950;55.840;37.442;2022-12-26T12:39:59;100951.56;;;-3.27;67.05
56074;BME280;41950;55.840;37.442;2022-12-26T12:42:42;100953.63;;;-3.35;67.18
56074;BME280;41950;55.840;37.442;2022-12-26T12:45:28;100950.47;;;-3.46;67.45
56074;BME280;41950;55.840;37.442;2022-12-26T12:56:25;100951.31;;;-3.60;68.55
56074;BME280;41950;55.840;37.442;2022-12-26T12:59:00;100953.06;;;-3.59;68.79
56074;BME280;41950;55.840;37.442;2022-12-26T13:01:41;100951.50;;;-3.57;68.73
56074;BME280;41950;55.840;37.442;2022-12-26T13:04:37;100951.63;;;-3.55;68.77
56074;BME280;41950;55.840;37.442;2022-12-26T13:07:08;100931.72;;;-3.62;69.00
56074;BME280;41950;55.840;37.442;2022-12-26T13:09:50;100941.00;;;-3.63;68.41
56074;BME280;41950;55.840;37.442;2022-12-26T13:12:21;100951.31;;;-3.60;68.70
56074;BME280;41950;55.840;37.442;2022-12-26T13:14:56;100949.47;;;-3.62;68.97
56074;BME280;41950;55.840;37.442;2022-12-26T13:17:26;100956.47;;;-3.58;69.02
56074;BME280;41950;55.840;37.442;2022-12-26T13:22:42;100958.84;;;-3.61;69.07
56074;BME280;41950;55.840;37.442;2022-12-26T13:25:33;100959.09;;;-3.57;69.06
56074;BME280;41950;55.840;37.442;2022-12-26T13:28:03;100953.38;;;-3.54;69.04
56074;BME280;41950;55.840;37.442;2022-12-26T13:30:36;100944.13;;;-3.67;68.87
56074;BME280;41950;55.840;37.442;2022-12-26T13:33:04;100960.59;;;-3.60;69.14
56074;BME280;41950;55.840;37.442;2022-12-26T13:38:14;100969.25;;;-3.57;69.13
56074;BME280;41950;55.840;37.442;2022-12-26T13:40:49;100969.47;;;-3.54;69.19
56074;BME280;41950;55.840;37.442;2022-12-26T13:43:24;100967.22;;;-3.62;69.22
56074;BME280;41950;55.840;37.442;2022-12-26T13:48:58;100965.22;;;-3.68;69.62
56074;BME280;41950;55.840;37.442;2022-12-26T13:51:45;100959.09;;;-3.71;69.52
56074;BME280;41950;55.840;37.442;2022-12-26T13:54:12;100965.03;;;-3.71;69.62
56074;BME280;41950;55.840;37.442;2022-12-26T14:10:11;100942.03;;;-3.74;69.66
56074;BME280;41950;55.840;37.442;2022-12-26T14:15:38;100933.66;;;-3.86;69.78
56074;BME280;41950;55.840;37.442;2022-12-26T14:29:46;100930.84;;;-3.91;70.62
56074;BME280;41950;55.840;37.442;2022-12-26T14:38:23;100935.41;;;-3.85;70.61
56074;BME280;41950;55.840;37.442;2022-12-26T14:41:14;100928.97;;;-3.80;70.60
56074;BME280;41950;55.840;37.442;2022-12-26T14:44:16;100924.47;;;-3.84;70.72
56074;BME280;41950;55.840;37.442;2022-12-26T14:47:03;100934.75;;;-3.83;70.66
56074;BME280;41950;55.840;37.442;2022-12-26T14:54:53;100924.09;;;-4.05;70.96
56074;BME280;41950;55.840;37.442;2022-12-26T15:00:27;100933.81;;;-3.98;71.07
56074;BME280;41950;55.840;37.442;2022-12-26T15:05:30;100924.19;;;-4.03;71.09
56074;BME280;41950;55.840;37.442;2022-12-26T15:08:39;100920.69;;;-4.06;71.11
56074;BME280;41950;55.840;37.442;2022-12-26T15:19:58;100909.06;;;-4.02;71.62
56074;BME280;41950;55.840;37.442;2022-12-26T15:25:28;100911.31;;;-4.07;71.61
56074;BME280;41950;55.840;37.442;2022-12-26T15:31:29;100909.16;;;-4.00;71.72
56074;BME280;41950;55.840;37.442;2022-12-26T15:39:38;100900.41;;;-4.06;71.89
56074;BME280;41950;55.840;37.442;2022-12-26T15:47:57;100903.28;;;-3.99;71.78
56074;BME280;41950;55.840;37.442;2022-12-26T15:53:31;100878.06;;;-4.11;71.77
56074;BME280;41950;55.840;37.442;2022-12-26T16:01:37;100861.22;;;-4.11;71.85
56074;BME280;41950;55.840;37.442;2022-12-26T16:04:34;100872.31;;;-4.09;72.00
56074;BME280;41950;55.840;37.442;2022-12-26T16:07:20;100860.13;;;-4.14;71.93
56074;BME280;41950;55.840;37.442;2022-12-26T16:09:50;100883.19;;;-3.96;71.97
56074;BME280;41950;55.840;37.442;2022-12-26T16:12:32;100883.38;;;-3.93;71.90
56074;BME280;41950;55.840;37.442;2022-12-26T16:17:37;100871.81;;;-4.03;71.76
56074;BME280;41950;55.840;37.442;2022-12-26T16:20:30;100888.44;;;-3.93;71.80
56074;BME280;41950;55.840;37.442;2022-12-26T16:23:21;100880.75;;;-3.95;71.93
56074;BME280;41950;55.840;37.442;2022-12-26T16:25:49;100821.03;;;-4.32;71.92
56074;BME280;41950;55.840;37.442;2022-12-26T16:28:27;100878.47;;;-3.90;71.93
56074;BME280;41950;55.840;37.442;2022-12-26T16:30:56;100867.78;;;-3.99;71.78
56074;BME280;41950;55.840;37.442;2022-12-26T16:33:22;100886.97;;;-3.90;71.73
56074;BME280;41950;55.840;37.442;2022-12-26T16:35:49;100884.41;;;-3.90;71.79
56074;BME280;41950;55.840;37.442;2022-12-26T16:38:19;100888.72;;;-3.89;71.95
56074;BME280;41950;55.840;37.442;2022-12-26T16:40:49;100882.16;;;-3.85;71.72
56074;BME280;41950;55.840;37.442;2022-12-26T16:45:45;100876.78;;;-3.77;71.72
56074;BME280;41950;55.840;37.442;2022-12-26T16:48:17;100881.16;;;-3.74;71.40
56074;BME280;41950;55.840;37.442;2022-12-26T16:50:53;100878.44;;;-3.77;71.40
56074;BME280;41950;55.840;37.442;2022-12-26T16:53:41;100873.00;;;-3.83;71.27
56074;BME280;41950;55.840;37.442;2022-12-26T16:58:41;100877.81;;;-3.73;71.27
56074;BME280;41950;55.840;37.442;2022-12-26T17:01:09;100867.59;;;-3.75;71.37
56074;BME280;41950;55.840;37.442;2022-12-26T17:03:53;100868.91;;;-3.66;71.29
56074;BME280;41950;55.840;37.442;2022-12-26T17:06:33;100868.03;;;-3.67;71.12
56074;BME280;41950;55.840;37.442;2022-12-26T17:09:10;100864.44;;;-3.70;70.86
56074;BME280;41950;55.840;37.442;2022-12-26T17:11:51;100866.78;;;-3.74;71.06
56074;BME280;41950;55.840;37.442;2022-12-26T17:14:21;100872.13;;;-3.69;71.06
56074;BME280;41950;55.840;37.442;2022-12-26T17:16:56;100858.66;;;-3.68;70.65
56074;BME280;41950;55.840;37.442;2022-12-26T17:19:26;100859.09;;;-3.75;70.25